< < Back
Terminal Aerodrome Forecast


Current Version              Previous Versions:   1  2  3  4  5  6  7  8  9  

Terminal Aerodrome Forecast

943
FTUS42 KJAX 210500
TAFGNV
TAF
KGNV 210521Z 2106/2206 00000KT P6SM SCT035 BKN250
     FM210900 00000KT 5SM BR SCT250
      TEMPO 2110/2112 2SM BR
     FM211300 34005KT P6SM SCT250
     FM220000 VRB03KT P6SM SKC=



Latest METAR

263
SAUS70 KWBC 211000 RRJ
MTRGNV
METAR KGNV 210953Z AUTO 00000KT 10SM CLR 17/16 A2995 RMK AO2 SLP139
T01670161


USA.gov is the U.S. government's official web portal to all federal, state and local government web resources and services.